createdAt,value
2024-03-04T00:00:58.433Z,19.20
2024-03-04T00:04:24.861Z,18.20
2024-03-04T00:07:29.269Z,18.90
2024-03-04T00:10:34.083Z,19.30
2024-03-04T00:13:38.884Z,20.60
2024-03-04T00:16:44.258Z,17.40
2024-03-04T00:19:48.490Z,20.00
2024-03-04T00:22:52.791Z,17.50
2024-03-04T00:25:57.002Z,15.60
2024-03-04T00:29:01.224Z,17.50
2024-03-04T00:32:06.378Z,17.20
2024-03-04T00:35:12.276Z,15.80
2024-03-04T00:38:16.647Z,21.50
2024-03-04T00:41:27.318Z,22.30
2024-03-04T00:44:31.746Z,18.10
2024-03-04T00:47:36.203Z,18.40
2024-03-04T00:50:40.660Z,17.50
2024-03-04T00:53:48.511Z,13.80
2024-03-04T00:56:52.769Z,17.30
2024-03-04T00:59:58.275Z,18.30
2024-03-04T01:03:02.917Z,17.10
2024-03-04T01:09:12.668Z,20.40
2024-03-04T01:12:17.100Z,17.70
2024-03-04T01:15:21.333Z,19.20
2024-03-04T01:18:26.429Z,22.60
2024-03-04T01:21:31.009Z,19.00
2024-03-04T01:24:35.627Z,21.90
2024-03-04T01:30:43.970Z,18.90
2024-03-04T01:33:51.093Z,24.20
2024-03-04T01:36:55.478Z,19.50
2024-03-04T01:39:59.710Z,19.60
2024-03-04T01:43:04.526Z,19.40
2024-03-04T01:46:10.926Z,19.70
2024-03-04T01:49:15.346Z,19.90
2024-03-04T01:52:22.110Z,19.10
2024-03-04T01:55:31.928Z,16.40
2024-03-04T01:58:42.836Z,19.80
2024-03-04T02:01:47.531Z,22.80
2024-03-04T02:07:58.680Z,17.80
2024-03-04T02:11:05.345Z,16.90
2024-03-04T02:14:10.674Z,16.80
2024-03-04T02:17:16.165Z,18.70
2024-03-04T02:20:22.935Z,24.40
2024-03-04T02:23:27.567Z,23.70
2024-03-04T02:26:35.128Z,21.90
2024-03-04T02:29:39.390Z,20.20
2024-03-04T02:32:43.955Z,22.20
2024-03-04T02:35:49.770Z,21.20
2024-03-04T02:38:55.100Z,20.30
2024-03-04T02:41:59.342Z,17.00
2024-03-04T02:45:04.782Z,18.00
2024-03-04T02:48:09.223Z,18.20
2024-03-04T02:51:13.498Z,15.20
2024-03-04T02:54:18.376Z,21.70
2024-03-04T02:57:22.599Z,20.50
2024-03-04T03:00:27.017Z,21.70
2024-03-04T03:03:31.351Z,21.90
2024-03-04T03:06:35.668Z,17.10
2024-03-04T03:09:39.888Z,20.20
2024-03-04T03:12:44.215Z,21.40
2024-03-04T03:15:49.557Z,19.40
2024-03-04T03:18:57.725Z,18.60
2024-03-04T03:22:04.244Z,18.50
2024-03-04T03:25:09.346Z,21.00
2024-03-04T03:28:14.875Z,22.00
2024-03-04T03:31:22.545Z,21.90
2024-03-04T03:34:26.809Z,18.90
2024-03-04T03:37:31.542Z,16.00
2024-03-04T03:40:36.137Z,20.50
2024-03-04T03:46:44.819Z,19.80
2024-03-04T03:49:49.718Z,17.20
2024-03-04T03:52:53.864Z,22.20
2024-03-04T03:55:58.152Z,17.10
2024-03-04T03:59:02.480Z,19.00
2024-03-04T04:02:06.862Z,20.10
2024-03-04T04:05:11.242Z,22.70
2024-03-04T04:08:15.646Z,20.90
2024-03-04T04:11:19.928Z,19.90
2024-03-04T04:14:24.295Z,22.40
2024-03-04T04:17:28.549Z,20.60
2024-03-04T04:20:32.776Z,16.80
2024-03-04T04:23:37.260Z,17.00
2024-03-04T04:26:41.484Z,17.30
2024-03-04T04:29:46.019Z,25.00
2024-03-04T04:35:54.771Z,15.60
2024-03-04T04:38:59.191Z,23.40
2024-03-04T04:42:03.517Z,20.10
2024-03-04T04:45:08.310Z,20.10
2024-03-04T04:48:12.565Z,16.20
2024-03-04T04:51:16.788Z,19.10
2024-03-04T04:54:21.015Z,17.50
2024-03-04T04:57:27.248Z,19.90
2024-03-04T05:00:31.620Z,17.40
2024-03-04T05:03:52.351Z,19.20
2024-03-04T05:07:01.915Z,20.60
2024-03-04T05:10:07.479Z,21.10
2024-03-04T05:13:12.248Z,21.60
2024-03-04T05:19:22.770Z,21.50
2024-03-04T05:22:27.718Z,23.10
2024-03-04T05:25:32.398Z,24.00
2024-03-04T05:28:36.638Z,21.10
2024-03-04T05:31:53.074Z,20.00
2024-03-04T05:34:57.389Z,20.30
2024-03-04T05:38:01.678Z,17.20
2024-03-04T05:41:06.312Z,21.40
2024-03-04T05:44:11.033Z,23.40
2024-03-04T05:47:16.176Z,22.20
2024-03-04T05:50:20.397Z,24.50
2024-03-04T05:53:26.918Z,21.70
2024-03-04T05:56:31.300Z,18.10
2024-03-04T05:59:35.522Z,22.60
2024-03-04T06:02:40.525Z,18.80
2024-03-04T06:05:44.823Z,23.90
2024-03-04T06:08:49.109Z,21.00
2024-03-04T06:11:53.456Z,21.40
2024-03-04T06:14:57.755Z,20.20
2024-03-04T06:18:02.123Z,22.60
2024-03-04T06:21:07.542Z,20.10
2024-03-04T06:24:11.949Z,21.70
2024-03-04T06:27:16.477Z,21.00
2024-03-04T06:33:32.709Z,19.70
2024-03-04T06:36:44.605Z,24.70
2024-03-04T06:39:49.077Z,17.10
2024-03-04T06:45:57.858Z,21.50
2024-03-04T06:52:07.277Z,25.90
2024-03-04T06:55:11.707Z,22.90
2024-03-04T06:58:16.680Z,23.00
2024-03-04T07:01:21.230Z,20.00
2024-03-04T07:07:30.234Z,22.30
2024-03-04T07:13:38.865Z,27.70
2024-03-04T07:16:43.403Z,22.70
2024-03-04T07:19:47.800Z,23.10
2024-03-04T07:22:52.119Z,22.50
2024-03-04T07:25:56.331Z,24.40
2024-03-04T07:29:02.188Z,26.60
2024-03-04T07:32:08.103Z,22.00
2024-03-04T07:35:12.786Z,22.70
2024-03-04T07:41:21.122Z,27.20
2024-03-04T07:44:25.457Z,22.90
2024-03-04T07:47:29.903Z,25.40
2024-03-04T07:50:34.208Z,31.30
2024-03-04T07:53:38.415Z,29.70
2024-03-04T07:56:42.736Z,27.50
2024-03-04T07:59:47.073Z,25.00
2024-03-04T08:02:51.282Z,20.80
2024-03-04T08:05:55.604Z,24.50
2024-03-04T08:08:59.829Z,26.40
2024-03-04T08:12:06.141Z,23.90
2024-03-04T08:15:10.817Z,24.30
2024-03-04T08:21:19.416Z,26.20
2024-03-04T08:24:23.698Z,26.40
2024-03-04T08:27:28.019Z,24.30
2024-03-04T08:30:32.168Z,33.10
2024-03-04T08:33:36.667Z,33.50
2024-03-04T08:36:41.402Z,25.80
2024-03-04T08:39:45.836Z,29.90
2024-03-04T08:42:50.155Z,25.30
2024-03-04T08:48:58.694Z,17.70
2024-03-04T08:52:03.513Z,25.20
2024-03-04T08:55:08.460Z,25.20
2024-03-04T08:58:14.076Z,22.20
2024-03-04T09:01:19.490Z,24.20
2024-03-04T09:04:23.910Z,24.20
2024-03-04T09:07:29.181Z,25.80
2024-03-04T09:10:35.536Z,26.30
2024-03-04T09:13:41.266Z,30.40
2024-03-04T09:16:45.612Z,26.00
2024-03-04T09:19:50.165Z,27.50
2024-03-04T09:26:00.540Z,26.70
2024-03-04T09:29:04.931Z,28.80
2024-03-04T09:32:09.252Z,37.90
2024-03-04T09:35:13.699Z,30.20
2024-03-04T09:41:23.045Z,27.10
2024-03-04T09:44:29.230Z,25.40
2024-03-04T09:47:35.214Z,30.00
2024-03-04T09:50:39.632Z,24.60
2024-03-04T09:53:45.970Z,31.80
2024-03-04T09:56:51.520Z,24.60
2024-03-04T09:59:56.509Z,24.70
2024-03-04T10:03:01.091Z,26.00
2024-03-04T10:06:06.695Z,24.20
2024-03-04T10:09:14.026Z,25.40
2024-03-04T10:12:18.765Z,23.60
2024-03-04T10:15:23.930Z,26.50
2024-03-04T10:18:29.658Z,31.90
2024-03-04T10:21:34.241Z,27.50
2024-03-04T10:27:44.958Z,27.60
2024-03-04T10:30:49.152Z,25.40
2024-03-04T10:33:53.434Z,22.50
2024-03-04T10:36:59.930Z,26.90
2024-03-04T10:40:05.612Z,27.30
2024-03-04T10:43:09.916Z,22.10
2024-03-04T10:46:17.468Z,27.50
2024-03-04T10:49:24.219Z,23.30
2024-03-04T10:52:29.164Z,30.30
2024-03-04T10:55:35.008Z,30.30
2024-03-04T10:58:43.958Z,26.70
2024-03-04T11:01:49.312Z,29.20
2024-03-04T11:04:55.229Z,28.00
2024-03-04T11:08:08.243Z,25.50
2024-03-04T11:11:23.630Z,26.30
2024-03-04T11:14:35.696Z,29.50
2024-03-04T11:17:47.646Z,29.90
2024-03-04T11:20:52.450Z,25.00
2024-03-04T11:23:57.556Z,29.80
2024-03-04T11:27:03.714Z,26.60
2024-03-04T11:30:09.120Z,24.10
2024-03-04T11:33:43.097Z,28.30
2024-03-04T11:36:47.384Z,25.80
2024-03-04T11:39:53.716Z,24.20
2024-03-04T11:42:59.582Z,23.50
2024-03-04T11:46:04.436Z,24.80
2024-03-04T11:49:29.879Z,29.50
2024-03-04T11:52:39.627Z,24.30
2024-03-04T11:55:46.551Z,30.10
2024-03-04T11:58:51.343Z,28.10
2024-03-04T12:05:02.489Z,31.80
2024-03-04T12:08:21.248Z,33.10
2024-03-04T12:11:33.392Z,20.00
2024-03-04T12:14:37.810Z,33.60
2024-03-04T12:17:42.781Z,30.00
2024-03-04T12:20:47.473Z,30.80
2024-03-04T12:26:57.140Z,30.30
2024-03-04T12:30:15.987Z,26.10
2024-03-04T12:33:20.432Z,25.90
2024-03-04T12:36:26.312Z,27.30
2024-03-04T12:39:32.804Z,29.20
2024-03-04T12:42:37.101Z,26.00
2024-03-04T12:45:41.618Z,25.90
2024-03-04T12:48:46.676Z,27.40
2024-03-04T12:51:51.005Z,33.80
2024-03-04T12:54:55.203Z,25.90
2024-03-04T12:57:59.994Z,30.60
2024-03-04T13:01:17.049Z,23.90
2024-03-04T13:04:21.512Z,23.00
2024-03-04T13:07:25.814Z,20.70
2024-03-04T13:10:30.449Z,27.60
2024-03-04T13:13:34.797Z,28.30
2024-03-04T13:19:44.764Z,20.40
2024-03-04T13:22:51.222Z,28.10
2024-03-04T13:25:55.488Z,33.80
2024-03-04T13:28:59.856Z,25.50
2024-03-04T13:32:05.070Z,25.90
2024-03-04T13:35:11.152Z,23.20
2024-03-04T13:38:15.696Z,23.00
2024-03-04T13:41:19.917Z,24.10
2024-03-04T13:44:24.859Z,29.20
2024-03-04T13:47:29.320Z,23.60
2024-03-04T13:50:33.599Z,29.00
2024-03-04T13:53:38.323Z,22.40
2024-03-04T13:56:42.666Z,24.10
2024-03-04T13:59:46.985Z,27.60
2024-03-04T14:02:51.318Z,25.00
2024-03-04T14:05:55.851Z,32.00
2024-03-04T14:09:00.161Z,29.20
2024-03-04T14:12:05.070Z,32.50
2024-03-04T14:15:09.966Z,26.30
2024-03-04T14:18:14.382Z,28.80
2024-03-04T14:21:18.780Z,28.30
2024-03-04T14:24:23.004Z,25.90
2024-03-04T14:27:27.639Z,24.10
2024-03-04T14:30:32.358Z,27.00
2024-03-04T14:33:37.360Z,28.60
2024-03-04T14:36:41.828Z,24.40
2024-03-04T14:39:46.392Z,24.50
2024-03-04T14:42:50.685Z,26.60
2024-03-04T14:45:55.020Z,24.80
2024-03-04T14:48:59.135Z,25.80
2024-03-04T14:52:04.973Z,26.90
2024-03-04T14:55:09.427Z,26.10
2024-03-04T14:58:13.667Z,23.30
2024-03-04T15:01:21.131Z,28.40
2024-03-04T15:04:25.400Z,31.00
2024-03-04T15:07:29.842Z,31.90
2024-03-04T15:10:34.176Z,25.50
2024-03-04T15:13:39.136Z,26.30
2024-03-04T15:16:50.997Z,20.70
2024-03-04T15:19:56.392Z,27.80
2024-03-04T15:23:00.608Z,27.30
2024-03-04T15:26:04.861Z,24.60
2024-03-04T15:29:09.157Z,27.70
2024-03-04T15:32:13.978Z,26.60
2024-03-04T15:35:18.250Z,25.00
2024-03-04T15:38:22.534Z,31.80
2024-03-04T15:41:26.660Z,30.60
2024-03-04T15:44:30.876Z,30.90
2024-03-04T15:50:40.126Z,30.60
2024-03-04T15:53:44.297Z,34.00
2024-03-04T15:56:48.403Z,36.00
2024-03-04T15:59:54.115Z,36.80
2024-03-04T16:02:58.336Z,37.60
2024-03-04T16:06:05.159Z,32.10
2024-03-04T16:09:10.249Z,38.70
2024-03-04T16:12:15.441Z,30.90
2024-03-04T16:15:19.784Z,33.70
2024-03-04T16:18:24.082Z,36.00
2024-03-04T16:21:30.495Z,28.90
2024-03-04T16:24:36.736Z,31.80
2024-03-04T16:27:41.633Z,36.10
2024-03-04T16:30:47.488Z,38.10
2024-03-04T16:33:52.440Z,36.10
2024-03-04T16:36:56.646Z,38.10
2024-03-04T16:40:02.037Z,40.60
2024-03-04T16:43:06.748Z,36.90
2024-03-04T16:46:11.080Z,36.60
2024-03-04T16:49:15.724Z,35.40
2024-03-04T16:52:20.035Z,34.60
2024-03-04T16:55:24.495Z,34.80
2024-03-04T16:58:30.251Z,34.30
2024-03-04T17:01:38.741Z,35.60
2024-03-04T17:04:45.122Z,36.10
2024-03-04T17:07:49.803Z,35.90
2024-03-04T17:13:59.172Z,45.50
2024-03-04T17:20:11.706Z,44.50
2024-03-04T17:23:19.008Z,41.50
2024-03-04T17:26:24.254Z,37.70
2024-03-04T17:29:31.390Z,37.40
2024-03-04T17:32:37.414Z,34.80
2024-03-04T17:35:42.450Z,31.00
2024-03-04T17:38:46.763Z,34.10
2024-03-04T17:41:51.124Z,25.90
2024-03-04T17:44:55.517Z,32.40
2024-03-04T17:48:00.130Z,37.40
2024-03-04T17:51:05.491Z,31.60
2024-03-04T17:54:11.252Z,34.30
2024-03-04T17:57:15.570Z,30.70
2024-03-04T18:00:20.684Z,34.10
2024-03-04T18:03:25.002Z,43.00
2024-03-04T18:06:29.771Z,45.80
2024-03-04T18:09:34.112Z,37.70
2024-03-04T18:12:38.798Z,53.90
2024-03-04T18:18:49.931Z,39.20
2024-03-04T18:21:54.283Z,35.60
2024-03-04T18:24:58.591Z,37.10
2024-03-04T18:28:02.900Z,32.50
2024-03-04T18:31:07.279Z,32.90
2024-03-04T18:34:14.241Z,33.70
2024-03-04T18:37:20.409Z,31.40
2024-03-04T18:40:24.857Z,37.80
2024-03-04T18:43:29.272Z,35.70
2024-03-04T18:46:34.035Z,35.80
2024-03-04T18:49:39.180Z,33.20
2024-03-04T18:52:43.774Z,41.10
2024-03-04T18:58:52.510Z,34.90
2024-03-04T19:01:57.112Z,37.80
2024-03-04T19:05:01.584Z,40.60
2024-03-04T19:11:15.840Z,33.70
2024-03-04T19:14:21.104Z,37.40
2024-03-04T19:17:25.393Z,38.30
2024-03-04T19:20:29.633Z,41.00
2024-03-04T19:23:33.946Z,37.40
2024-03-04T19:26:38.657Z,38.20
2024-03-04T19:29:44.005Z,38.50
2024-03-04T19:32:48.273Z,38.50
2024-03-04T19:35:53.164Z,35.80
2024-03-04T19:38:57.421Z,27.60
2024-03-04T19:42:03.329Z,36.40
2024-03-04T19:45:09.850Z,33.40
2024-03-04T19:48:14.171Z,34.80
2024-03-04T19:51:22.929Z,32.00
2024-03-04T19:54:28.423Z,31.20
2024-03-04T19:57:39.908Z,34.30
2024-03-04T20:00:48.991Z,34.50
2024-03-04T20:03:53.306Z,34.50
2024-03-04T20:06:59.181Z,34.20
2024-03-04T20:10:03.963Z,31.30
2024-03-04T20:13:08.401Z,33.10
2024-03-04T20:16:16.965Z,34.60
2024-03-04T20:19:22.100Z,30.40
2024-03-04T20:22:27.547Z,33.20
2024-03-04T20:25:32.161Z,35.80
2024-03-04T20:28:37.473Z,29.90
2024-03-04T20:31:42.658Z,31.20
2024-03-04T20:34:47.051Z,34.10
2024-03-04T20:40:55.806Z,40.40
2024-03-04T20:44:01.352Z,45.20
2024-03-04T20:47:05.666Z,44.80
2024-03-04T20:50:11.018Z,38.40
2024-03-04T20:53:15.335Z,36.70
2024-03-04T20:56:19.667Z,32.70
2024-03-04T20:59:24.877Z,32.40
2024-03-04T21:02:30.150Z,37.10
2024-03-04T21:05:34.680Z,36.70
2024-03-04T21:11:43.974Z,38.70
2024-03-04T21:14:48.675Z,34.80
2024-03-04T21:17:55.960Z,30.80
2024-03-04T21:21:02.752Z,35.70
2024-03-04T21:24:07.083Z,43.20
2024-03-04T21:27:11.496Z,35.20
2024-03-04T21:30:19.757Z,35.80
2024-03-04T21:33:24.073Z,31.90
2024-03-04T21:36:28.361Z,33.90
2024-03-04T21:39:33.090Z,30.00
2024-03-04T21:42:40.790Z,33.20
2024-03-04T21:45:46.071Z,34.10
2024-03-04T21:48:50.370Z,36.10
2024-03-04T21:51:54.589Z,35.90
2024-03-04T21:54:59.108Z,30.60
2024-03-04T22:01:21.364Z,29.70
2024-03-04T22:04:25.975Z,28.00
2024-03-04T22:10:36.846Z,26.70
2024-03-04T22:13:41.647Z,28.70
2024-03-04T22:16:46.980Z,25.80
2024-03-04T22:19:54.004Z,20.20
2024-03-04T22:22:58.341Z,23.80
2024-03-04T22:26:04.340Z,24.00
2024-03-04T22:29:10.419Z,23.00
2024-03-04T22:32:15.194Z,23.40
2024-03-04T22:35:19.480Z,22.20
2024-03-04T22:38:24.209Z,24.20
2024-03-04T22:41:29.152Z,24.20
2024-03-04T22:44:33.598Z,23.40
2024-03-04T22:47:38.014Z,23.60
2024-03-04T22:50:42.859Z,23.30
2024-03-04T22:53:47.084Z,22.90
2024-03-04T22:56:51.894Z,19.80
2024-03-04T22:59:56.117Z,21.50
2024-03-04T23:03:01.587Z,24.80
2024-03-04T23:06:06.393Z,22.50
2024-03-04T23:09:10.626Z,22.00
2024-03-04T23:12:16.941Z,20.50
2024-03-04T23:15:21.217Z,23.30
2024-03-04T23:18:25.965Z,20.10
2024-03-04T23:21:30.587Z,23.00
2024-03-04T23:24:34.913Z,18.90
2024-03-04T23:27:40.461Z,22.20
2024-03-04T23:30:44.918Z,18.20
2024-03-04T23:33:50.537Z,23.10
2024-03-04T23:36:55.478Z,19.60
2024-03-04T23:40:00.215Z,24.40
2024-03-04T23:43:04.911Z,21.20
2024-03-04T23:46:10.350Z,22.90
2024-03-04T23:49:15.044Z,19.70
2024-03-04T23:52:19.332Z,19.50
2024-03-04T23:55:23.530Z,18.70
2024-03-04T23:58:28.464Z,19.00
